sensor_id;sensor_type;location;lat;lon;timestamp;pressure;altitude;pressure_sealevel;temperature;humidity
76137;BME280;68622;53.128;17.966;2023-09-19T00:00:21;100309.31;;;21.98;57.57
76137;BME280;68622;53.128;17.966;2023-09-19T00:03:08;100309.29;;;21.94;57.81
76137;BME280;68622;53.128;17.966;2023-09-19T00:05:37;100304.70;;;21.90;57.79
76137;BME280;68622;53.128;17.966;2023-09-19T00:08:11;100308.27;;;21.88;57.82
76137;BME280;68622;53.128;17.966;2023-09-19T00:10:40;100313.45;;;21.86;57.88
76137;BME280;68622;53.128;17.966;2023-09-19T00:13:08;100321.20;;;21.85;57.89
76137;BME280;68622;53.128;17.966;2023-09-19T00:15:41;100324.89;;;21.84;57.97
76137;BME280;68622;53.128;17.966;2023-09-19T00:18:08;100326.42;;;21.82;58.21
76137;BME280;68622;53.128;17.966;2023-09-19T00:20:36;100327.08;;;21.81;58.30
76137;BME280;68622;53.128;17.966;2023-09-19T00:23:03;100332.41;;;21.82;58.41
76137;BME280;68622;53.128;17.966;2023-09-19T00:25:31;100337.09;;;21.82;58.77
76137;BME280;68622;53.128;17.966;2023-09-19T00:28:01;100333.38;;;21.82;59.50
76137;BME280;68622;53.128;17.966;2023-09-19T00:30:28;100335.53;;;21.88;59.45
76137;BME280;68622;53.128;17.966;2023-09-19T00:32:55;100339.70;;;21.90;59.87
76137;BME280;68622;53.128;17.966;2023-09-19T00:35:22;100335.17;;;21.96;59.53
76137;BME280;68622;53.128;17.966;2023-09-19T00:37:52;100335.50;;;21.96;59.57
76137;BME280;68622;53.128;17.966;2023-09-19T00:40:19;100338.15;;;21.95;60.20
76137;BME280;68622;53.128;17.966;2023-09-19T00:42:48;100336.12;;;21.95;60.05
76137;BME280;68622;53.128;17.966;2023-09-19T00:45:17;100332.02;;;21.93;60.12
76137;BME280;68622;53.128;17.966;2023-09-19T00:47:46;100329.24;;;21.93;60.15
76137;BME280;68622;53.128;17.966;2023-09-19T00:50:17;100329.73;;;21.88;60.48
76137;BME280;68622;53.128;17.966;2023-09-19T00:52:50;100325.55;;;21.87;60.50
76137;BME280;68622;53.128;17.966;2023-09-19T00:55:19;100317.08;;;21.83;60.35
76137;BME280;68622;53.128;17.966;2023-09-19T00:57:46;100317.19;;;21.80;60.82
76137;BME280;68622;53.128;17.966;2023-09-19T01:00:13;100317.08;;;21.77;60.97
76137;BME280;68622;53.128;17.966;2023-09-19T01:02:42;100316.77;;;21.73;61.25
76137;BME280;68622;53.128;17.966;2023-09-19T01:05:11;100318.64;;;21.67;61.32
76137;BME280;68622;53.128;17.966;2023-09-19T01:07:39;100317.48;;;21.65;61.28
76137;BME280;68622;53.128;17.966;2023-09-19T01:10:09;100320.07;;;21.62;61.44
76137;BME280;68622;53.128;17.966;2023-09-19T01:15:28;100311.36;;;21.56;61.50
76137;BME280;68622;53.128;17.966;2023-09-19T01:20:37;100310.58;;;21.52;61.53
76137;BME280;68622;53.128;17.966;2023-09-19T01:23:21;100311.02;;;21.50;61.49
76137;BME280;68622;53.128;17.966;2023-09-19T01:26:06;100301.95;;;21.47;61.86
76137;BME280;68622;53.128;17.966;2023-09-19T01:31:33;100290.45;;;21.38;62.23
76137;BME280;68622;53.128;17.966;2023-09-19T01:34:02;100277.52;;;21.35;62.27
76137;BME280;68622;53.128;17.966;2023-09-19T01:36:37;100261.84;;;21.26;63.43
76137;BME280;68622;53.128;17.966;2023-09-19T01:39:07;100257.02;;;21.26;63.22
76137;BME280;68622;53.128;17.966;2023-09-19T01:44:09;100264.73;;;21.19;63.03
76137;BME280;68622;53.128;17.966;2023-09-19T01:46:41;100276.35;;;21.15;63.58
76137;BME280;68622;53.128;17.966;2023-09-19T01:52:13;100294.02;;;21.09;64.04
76137;BME280;68622;53.128;17.966;2023-09-19T01:54:51;100284.52;;;21.05;63.84
76137;BME280;68622;53.128;17.966;2023-09-19T01:59:59;100285.91;;;21.01;64.73
76137;BME280;68622;53.128;17.966;2023-09-19T02:02:46;100290.51;;;20.96;64.67
76137;BME280;68622;53.128;17.966;2023-09-19T02:05:22;100290.02;;;20.90;64.82
76137;BME280;68622;53.128;17.966;2023-09-19T02:07:52;100302.41;;;20.84;65.38
76137;BME280;68622;53.128;17.966;2023-09-19T02:10:25;100299.77;;;20.80;65.27
76137;BME280;68622;53.128;17.966;2023-09-19T02:12:51;100295.21;;;20.76;65.07
76137;BME280;68622;53.128;17.966;2023-09-19T02:15:18;100301.75;;;20.74;65.51
76137;BME280;68622;53.128;17.966;2023-09-19T02:17:44;100304.37;;;20.69;67.14
76137;BME280;68622;53.128;17.966;2023-09-19T02:20:13;100303.46;;;20.63;67.11
76137;BME280;68622;53.128;17.966;2023-09-19T02:22:41;100298.81;;;20.57;67.08
76137;BME280;68622;53.128;17.966;2023-09-19T02:25:08;100295.48;;;20.53;67.11
76137;BME280;68622;53.128;17.966;2023-09-19T02:27:36;100292.08;;;20.51;67.00
76137;BME280;68622;53.128;17.966;2023-09-19T02:30:04;100288.58;;;20.48;67.49
76137;BME280;68622;53.128;17.966;2023-09-19T02:32:32;100286.99;;;20.44;67.76
76137;BME280;68622;53.128;17.966;2023-09-19T02:35:02;100289.87;;;20.40;68.61
76137;BME280;68622;53.128;17.966;2023-09-19T02:37:31;100291.61;;;20.37;68.18
76137;BME280;68622;53.128;17.966;2023-09-19T02:39:59;100296.94;;;20.34;68.23
76137;BME280;68622;53.128;17.966;2023-09-19T02:42:26;100302.79;;;20.31;68.30
76137;BME280;68622;53.128;17.966;2023-09-19T02:44:52;100307.95;;;20.27;69.48
76137;BME280;68622;53.128;17.966;2023-09-19T02:47:19;100297.67;;;20.25;69.29
76137;BME280;68622;53.128;17.966;2023-09-19T02:49:45;100310.23;;;20.24;69.14
76137;BME280;68622;53.128;17.966;2023-09-19T02:52:12;100333.88;;;20.23;69.53
76137;BME280;68622;53.128;17.966;2023-09-19T02:54:40;100318.87;;;20.20;70.97
76137;BME280;68622;53.128;17.966;2023-09-19T02:57:08;100314.48;;;20.17;70.21
76137;BME280;68622;53.128;17.966;2023-09-19T02:59:35;100323.56;;;20.15;70.03
76137;BME280;68622;53.128;17.966;2023-09-19T03:02:03;100329.02;;;20.11;70.56
76137;BME280;68622;53.128;17.966;2023-09-19T03:04:31;100328.91;;;20.03;72.36
76137;BME280;68622;53.128;17.966;2023-09-19T03:06:59;100319.05;;;20.00;72.67
76137;BME280;68622;53.128;17.966;2023-09-19T03:09:27;100320.95;;;19.98;71.45
76137;BME280;68622;53.128;17.966;2023-09-19T03:11:54;100325.83;;;19.97;71.58
76137;BME280;68622;53.128;17.966;2023-09-19T03:14:21;100327.54;;;19.97;70.95
76137;BME280;68622;53.128;17.966;2023-09-19T03:16:49;100320.88;;;19.97;71.30
76137;BME280;68622;53.128;17.966;2023-09-19T03:19:19;100313.65;;;19.95;71.18
76137;BME280;68622;53.128;17.966;2023-09-19T03:21:47;100317.88;;;19.89;72.13
76137;BME280;68622;53.128;17.966;2023-09-19T03:24:16;100317.85;;;19.89;71.35
76137;BME280;68622;53.128;17.966;2023-09-19T03:26:42;100319.52;;;19.89;71.91
76137;BME280;68622;53.128;17.966;2023-09-19T03:29:09;100320.39;;;19.86;72.49
76137;BME280;68622;53.128;17.966;2023-09-19T03:31:36;100317.82;;;19.82;72.40
76137;BME280;68622;53.128;17.966;2023-09-19T03:34:03;100312.37;;;19.81;72.09
76137;BME280;68622;53.128;17.966;2023-09-19T03:36:30;100311.31;;;19.82;71.51
76137;BME280;68622;53.128;17.966;2023-09-19T03:38:57;100312.62;;;19.83;72.01
76137;BME280;68622;53.128;17.966;2023-09-19T03:41:24;100307.55;;;19.82;71.69
76137;BME280;68622;53.128;17.966;2023-09-19T03:43:54;100309.20;;;19.82;72.04
76137;BME280;68622;53.128;17.966;2023-09-19T03:46:21;100314.27;;;19.80;71.84
76137;BME280;68622;53.128;17.966;2023-09-19T03:48:49;100320.85;;;19.78;72.50
76137;BME280;68622;53.128;17.966;2023-09-19T03:51:16;100318.55;;;19.73;73.54
76137;BME280;68622;53.128;17.966;2023-09-19T03:53:43;100318.09;;;19.68;73.73
76137;BME280;68622;53.128;17.966;2023-09-19T03:56:10;100320.70;;;19.66;73.88
76137;BME280;68622;53.128;17.966;2023-09-19T03:58:37;100317.73;;;19.63;74.28
76137;BME280;68622;53.128;17.966;2023-09-19T04:01:06;100319.20;;;19.62;74.26
76137;BME280;68622;53.128;17.966;2023-09-19T04:03:33;100313.67;;;19.63;73.11
76137;BME280;68622;53.128;17.966;2023-09-19T04:06:14;100303.90;;;19.65;73.12
76137;BME280;68622;53.128;17.966;2023-09-19T04:08:41;100293.73;;;19.66;73.51
76137;BME280;68622;53.128;17.966;2023-09-19T04:11:08;100290.45;;;19.66;72.80
76137;BME280;68622;53.128;17.966;2023-09-19T04:13:35;100284.03;;;19.66;73.93
76137;BME280;68622;53.128;17.966;2023-09-19T04:16:02;100281.56;;;19.65;73.38
76137;BME280;68622;53.128;17.966;2023-09-19T04:18:35;100281.77;;;19.65;73.14
76137;BME280;68622;53.128;17.966;2023-09-19T04:21:05;100289.11;;;19.64;73.20
76137;BME280;68622;53.128;17.966;2023-09-19T04:23:32;100286.83;;;19.61;72.93
76137;BME280;68622;53.128;17.966;2023-09-19T04:25:59;100283.80;;;19.56;74.00
76137;BME280;68622;53.128;17.966;2023-09-19T04:28:26;100285.50;;;19.54;73.09
76137;BME280;68622;53.128;17.966;2023-09-19T04:30:54;100286.57;;;19.49;73.47
76137;BME280;68622;53.128;17.966;2023-09-19T04:33:21;100287.70;;;19.45;73.38
76137;BME280;68622;53.128;17.966;2023-09-19T04:35:49;100300.36;;;19.42;72.86
76137;BME280;68622;53.128;17.966;2023-09-19T04:38:19;100309.39;;;19.41;72.82
76137;BME280;68622;53.128;17.966;2023-09-19T04:40:46;100309.70;;;19.39;73.17
76137;BME280;68622;53.128;17.966;2023-09-19T04:43:13;100310.95;;;19.37;73.03
76137;BME280;68622;53.128;17.966;2023-09-19T04:45:41;100311.31;;;19.34;72.94
76137;BME280;68622;53.128;17.966;2023-09-19T04:48:08;100306.42;;;19.31;73.83
76137;BME280;68622;53.128;17.966;2023-09-19T04:50:35;100306.92;;;19.29;73.90
76137;BME280;68622;53.128;17.966;2023-09-19T04:53:01;100311.22;;;19.27;73.45
76137;BME280;68622;53.128;17.966;2023-09-19T04:55:29;100310.58;;;19.28;73.28
76137;BME280;68622;53.128;17.966;2023-09-19T04:57:56;100309.16;;;19.29;73.12
76137;BME280;68622;53.128;17.966;2023-09-19T05:00:23;100305.28;;;19.30;73.14
76137;BME280;68622;53.128;17.966;2023-09-19T05:02:51;100304.80;;;19.31;73.08
76137;BME280;68622;53.128;17.966;2023-09-19T05:05:19;100304.38;;;19.32;73.19
76137;BME280;68622;53.128;17.966;2023-09-19T05:07:46;100306.33;;;19.28;74.62
76137;BME280;68622;53.128;17.966;2023-09-19T05:10:14;100302.06;;;19.30;73.96
76137;BME280;68622;53.128;17.966;2023-09-19T05:12:41;100294.69;;;19.32;73.67
76137;BME280;68622;53.128;17.966;2023-09-19T05:15:08;100294.32;;;19.34;74.25
76137;BME280;68622;53.128;17.966;2023-09-19T05:17:36;100301.74;;;19.33;74.38
76137;BME280;68622;53.128;17.966;2023-09-19T05:20:03;100309.74;;;19.33;74.25
76137;BME280;68622;53.128;17.966;2023-09-19T05:23:06;100308.92;;;19.34;74.43
76137;BME280;68622;53.128;17.966;2023-09-19T05:25:39;100304.91;;;19.38;74.36
76137;BME280;68622;53.128;17.966;2023-09-19T05:28:07;100309.70;;;19.37;74.64
76137;BME280;68622;53.128;17.966;2023-09-19T05:30:35;100315.42;;;19.38;74.77
76137;BME280;68622;53.128;17.966;2023-09-19T05:33:03;100318.89;;;19.40;74.77
76137;BME280;68622;53.128;17.966;2023-09-19T05:35:31;100325.29;;;19.43;74.11
76137;BME280;68622;53.128;17.966;2023-09-19T05:37:58;100322.20;;;19.41;74.75
76137;BME280;68622;53.128;17.966;2023-09-19T05:40:25;100325.45;;;19.43;74.71
76137;BME280;68622;53.128;17.966;2023-09-19T05:42:52;100329.80;;;19.45;74.44
76137;BME280;68622;53.128;17.966;2023-09-19T05:45:19;100332.02;;;19.45;74.38
76137;BME280;68622;53.128;17.966;2023-09-19T05:47:49;100329.96;;;19.41;74.80
76137;BME280;68622;53.128;17.966;2023-09-19T05:50:17;100320.61;;;19.45;73.94
76137;BME280;68622;53.128;17.966;2023-09-19T05:52:52;100321.45;;;19.47;73.71
76137;BME280;68622;53.128;17.966;2023-09-19T05:55:19;100319.48;;;19.51;73.88
76137;BME280;68622;53.128;17.966;2023-09-19T05:57:53;100315.66;;;19.52;73.70
76137;BME280;68622;53.128;17.966;2023-09-19T06:00:21;100323.09;;;19.54;73.57
76137;BME280;68622;53.128;17.966;2023-09-19T06:02:51;100334.05;;;19.47;73.83
76137;BME280;68622;53.128;17.966;2023-09-19T06:05:19;100329.75;;;19.40;73.76
76137;BME280;68622;53.128;17.966;2023-09-19T06:07:46;100335.36;;;19.41;73.51
76137;BME280;68622;53.128;17.966;2023-09-19T06:10:13;100341.11;;;19.43;73.11
76137;BME280;68622;53.128;17.966;2023-09-19T06:12:44;100343.59;;;19.43;73.40
76137;BME280;68622;53.128;17.966;2023-09-19T06:15:12;100340.88;;;19.42;73.24
76137;BME280;68622;53.128;17.966;2023-09-19T06:17:50;100347.00;;;19.44;72.97
76137;BME280;68622;53.128;17.966;2023-09-19T06:20:17;100345.86;;;19.44;72.94
76137;BME280;68622;53.128;17.966;2023-09-19T06:22:45;100349.16;;;19.45;72.76
76137;BME280;68622;53.128;17.966;2023-09-19T06:25:14;100350.38;;;19.44;72.81
76137;BME280;68622;53.128;17.966;2023-09-19T06:27:51;100355.46;;;19.46;72.93
76137;BME280;68622;53.128;17.966;2023-09-19T06:30:23;100357.25;;;19.49;72.90
76137;BME280;68622;53.128;17.966;2023-09-19T06:32:58;100358.95;;;19.52;73.17
76137;BME280;68622;53.128;17.966;2023-09-19T06:35:25;100363.94;;;19.50;73.43
76137;BME280;68622;53.128;17.966;2023-09-19T06:37:54;100366.73;;;19.54;73.02
76137;BME280;68622;53.128;17.966;2023-09-19T06:40:24;100367.76;;;19.57;72.68
76137;BME280;68622;53.128;17.966;2023-09-19T06:42:51;100372.46;;;19.60;73.09
76137;BME280;68622;53.128;17.966;2023-09-19T06:45:22;100372.44;;;19.63;73.11
76137;BME280;68622;53.128;17.966;2023-09-19T06:47:50;100373.68;;;19.61;73.30
76137;BME280;68622;53.128;17.966;2023-09-19T06:50:18;100375.36;;;19.63;73.18
76137;BME280;68622;53.128;17.966;2023-09-19T06:52:47;100375.39;;;19.67;72.63
76137;BME280;68622;53.128;17.966;2023-09-19T06:55:17;100377.14;;;19.67;72.61
76137;BME280;68622;53.128;17.966;2023-09-19T06:57:46;100381.36;;;19.70;72.45
76137;BME280;68622;53.128;17.966;2023-09-19T07:00:14;100381.74;;;19.73;72.11
76137;BME280;68622;53.128;17.966;2023-09-19T07:02:54;100385.42;;;19.77;72.06
76137;BME280;68622;53.128;17.966;2023-09-19T07:05:21;100379.42;;;19.79;71.91
76137;BME280;68622;53.128;17.966;2023-09-19T07:07:48;100384.30;;;19.80;71.70
76137;BME280;68622;53.128;17.966;2023-09-19T07:10:15;100383.98;;;19.83;72.04
76137;BME280;68622;53.128;17.966;2023-09-19T07:12:42;100387.91;;;19.93;72.04
76137;BME280;68622;53.128;17.966;2023-09-19T07:15:09;100390.74;;;20.09;71.71
76137;BME280;68622;53.128;17.966;2023-09-19T07:17:36;100391.27;;;20.20;71.20
76137;BME280;68622;53.128;17.966;2023-09-19T07:20:03;100392.80;;;20.32;70.94
76137;BME280;68622;53.128;17.966;2023-09-19T07:22:34;100394.48;;;20.40;70.79
76137;BME280;68622;53.128;17.966;2023-09-19T07:25:01;100392.88;;;20.47;70.67
76137;BME280;68622;53.128;17.966;2023-09-19T07:27:29;100397.88;;;20.48;70.51
76137;BME280;68622;53.128;17.966;2023-09-19T07:29:55;100400.14;;;20.52;70.27
76137;BME280;68622;53.128;17.966;2023-09-19T07:32:22;100400.61;;;20.60;70.28
76137;BME280;68622;53.128;17.966;2023-09-19T07:34:49;100400.48;;;20.71;69.79
76137;BME280;68622;53.128;17.966;2023-09-19T07:37:16;100402.41;;;20.80;69.53
76137;BME280;68622;53.128;17.966;2023-09-19T07:39:43;100402.78;;;20.89;69.53
76137;BME280;68622;53.128;17.966;2023-09-19T07:42:11;100412.27;;;20.96;69.22
76137;BME280;68622;53.128;17.966;2023-09-19T07:44:44;100413.80;;;20.92;68.68
76137;BME280;68622;53.128;17.966;2023-09-19T07:47:14;100418.85;;;20.88;69.00
76137;BME280;68622;53.128;17.966;2023-09-19T07:49:40;100420.52;;;20.88;69.09
76137;BME280;68622;53.128;17.966;2023-09-19T07:52:09;100428.12;;;20.80;68.76
76137;BME280;68622;53.128;17.966;2023-09-19T07:54:36;100427.48;;;20.75;68.98
76137;BME280;68622;53.128;17.966;2023-09-19T07:57:05;100431.29;;;20.66;69.28
76137;BME280;68622;53.128;17.966;2023-09-19T07:59:31;100432.89;;;20.64;69.23
76137;BME280;68622;53.128;17.966;2023-09-19T08:01:58;100430.94;;;20.61;69.03
76137;BME280;68622;53.128;17.966;2023-09-19T08:04:25;100436.42;;;20.64;68.95
76137;BME280;68622;53.128;17.966;2023-09-19T08:06:52;100436.09;;;20.70;68.83
76137;BME280;68622;53.128;17.966;2023-09-19T08:09:19;100432.54;;;20.74;68.64
76137;BME280;68622;53.128;17.966;2023-09-19T08:11:47;100430.34;;;20.81;68.60
76137;BME280;68622;53.128;17.966;2023-09-19T08:14:14;100434.42;;;20.91;68.23
76137;BME280;68622;53.128;17.966;2023-09-19T08:16:41;100435.52;;;21.04;68.01
76137;BME280;68622;53.128;17.966;2023-09-19T08:19:10;100442.15;;;21.14;67.99
76137;BME280;68622;53.128;17.966;2023-09-19T08:21:37;100438.90;;;21.11;67.73
76137;BME280;68622;53.128;17.966;2023-09-19T08:24:03;100443.92;;;21.08;67.95
76137;BME280;68622;53.128;17.966;2023-09-19T08:26:30;100443.56;;;20.96;68.25
76137;BME280;68622;53.128;17.966;2023-09-19T08:28:57;100443.11;;;20.93;68.09
76137;BME280;68622;53.128;17.966;2023-09-19T08:31:24;100447.48;;;20.92;68.28
76137;BME280;68622;53.128;17.966;2023-09-19T08:33:52;100449.27;;;20.92;68.01
76137;BME280;68622;53.128;17.966;2023-09-19T08:36:20;100457.69;;;20.95;67.73
76137;BME280;68622;53.128;17.966;2023-09-19T08:38:46;100460.48;;;21.10;67.74
76137;BME280;68622;53.128;17.966;2023-09-19T08:41:13;100466.70;;;21.18;67.45
76137;BME280;68622;53.128;17.966;2023-09-19T08:43:40;100470.00;;;21.29;67.39
76137;BME280;68622;53.128;17.966;2023-09-19T08:46:16;100476.23;;;21.42;67.17
76137;BME280;68622;53.128;17.966;2023-09-19T08:48:50;100476.42;;;21.55;66.51
76137;BME280;68622;53.128;17.966;2023-09-19T08:51:30;100475.95;;;21.78;66.28
76137;BME280;68622;53.128;17.966;2023-09-19T08:54:09;100476.23;;;21.91;66.32
76137;BME280;68622;53.128;17.966;2023-09-19T08:56:41;100476.91;;;21.88;65.41
76137;BME280;68622;53.128;17.966;2023-09-19T08:59:09;100485.08;;;21.91;64.93
76137;BME280;68622;53.128;17.966;2023-09-19T09:01:40;100482.58;;;22.03;64.96
76137;BME280;68622;53.128;17.966;2023-09-19T09:04:09;100480.65;;;22.19;64.69
76137;BME280;68622;53.128;17.966;2023-09-19T09:06:41;100481.08;;;22.44;64.26
76137;BME280;68622;53.128;17.966;2023-09-19T09:09:10;100478.90;;;22.67;62.63
76137;BME280;68622;53.128;17.966;2023-09-19T09:11:38;100478.23;;;22.81;61.52
76137;BME280;68622;53.128;17.966;2023-09-19T09:14:09;100471.98;;;22.88;60.31
76137;BME280;68622;53.128;17.966;2023-09-19T09:16:36;100474.83;;;23.00;59.82
76137;BME280;68622;53.128;17.966;2023-09-19T09:19:04;100477.45;;;22.99;59.31
76137;BME280;68622;53.128;17.966;2023-09-19T09:21:31;100479.27;;;23.00;58.82
76137;BME280;68622;53.128;17.966;2023-09-19T09:27:00;100478.05;;;22.96;58.55
76137;BME280;68622;53.128;17.966;2023-09-19T09:29:41;100475.55;;;23.01;58.42
76137;BME280;68622;53.128;17.966;2023-09-19T09:34:51;100481.45;;;23.02;58.52
76137;BME280;68622;53.128;17.966;2023-09-19T09:37:19;100485.66;;;22.97;58.37
76137;BME280;68622;53.128;17.966;2023-09-19T09:39:51;100491.21;;;22.98;58.33
76137;BME280;68622;53.128;17.966;2023-09-19T09:45:28;100493.38;;;22.99;58.32
76137;BME280;68622;53.128;17.966;2023-09-19T09:48:04;100496.86;;;22.99;57.75
76137;BME280;68622;53.128;17.966;2023-09-19T09:50:47;100493.61;;;23.13;57.86
76137;BME280;68622;53.128;17.966;2023-09-19T09:53:24;100496.10;;;23.13;56.97
76137;BME280;68622;53.128;17.966;2023-09-19T09:56:06;100496.57;;;23.08;56.76
76137;BME280;68622;53.128;17.966;2023-09-19T09:58:34;100488.20;;;23.12;57.13
76137;BME280;68622;53.128;17.966;2023-09-19T10:01:03;100488.73;;;23.10;56.45
76137;BME280;68622;53.128;17.966;2023-09-19T10:03:37;100497.30;;;23.31;56.00
76137;BME280;68622;53.128;17.966;2023-09-19T10:06:10;100504.91;;;23.40;54.93
76137;BME280;68622;53.128;17.966;2023-09-19T10:09:07;100502.52;;;23.49;55.26
76137;BME280;68622;53.128;17.966;2023-09-19T10:11:45;100500.08;;;23.45;55.11
76137;BME280;68622;53.128;17.966;2023-09-19T10:14:15;100506.85;;;23.41;55.10
76137;BME280;68622;53.128;17.966;2023-09-19T10:16:47;100511.22;;;23.26;54.91
76137;BME280;68622;53.128;17.966;2023-09-19T10:19:36;100518.39;;;23.07;55.07
76137;BME280;68622;53.128;17.966;2023-09-19T10:22:05;100518.91;;;22.88;55.00
76137;BME280;68622;53.128;17.966;2023-09-19T10:24:35;100525.23;;;22.77;54.64
76137;BME280;68622;53.128;17.966;2023-09-19T10:27:06;100536.18;;;22.76;54.03
76137;BME280;68622;53.128;17.966;2023-09-19T10:29:36;100535.95;;;22.79;53.51
76137;BME280;68622;53.128;17.966;2023-09-19T10:32:06;100541.59;;;22.90;53.90
76137;BME280;68622;53.128;17.966;2023-09-19T10:34:36;100542.78;;;22.94;53.99
76137;BME280;68622;53.128;17.966;2023-09-19T10:37:04;100543.53;;;22.96;53.81
76137;BME280;68622;53.128;17.966;2023-09-19T10:39:32;100546.48;;;23.11;53.21
76137;BME280;68622;53.128;17.966;2023-09-19T10:42:02;100548.98;;;23.21;53.10
76137;BME280;68622;53.128;17.966;2023-09-19T10:44:32;100540.60;;;23.28;52.39
76137;BME280;68622;53.128;17.966;2023-09-19T10:46:59;100537.44;;;23.44;52.56
76137;BME280;68622;53.128;17.966;2023-09-19T10:49:26;100537.08;;;23.48;52.23
76137;BME280;68622;53.128;17.966;2023-09-19T10:51:56;100539.16;;;23.58;51.88
76137;BME280;68622;53.128;17.966;2023-09-19T10:54:29;100537.00;;;23.60;51.53
76137;BME280;68622;53.128;17.966;2023-09-19T10:56:59;100535.46;;;23.68;51.43
76137;BME280;68622;53.128;17.966;2023-09-19T10:59:26;100526.54;;;23.76;50.90
76137;BME280;68622;53.128;17.966;2023-09-19T11:02:16;100520.21;;;23.84;51.29
76137;BME280;68622;53.128;17.966;2023-09-19T11:04:44;100518.03;;;23.82;50.91
76137;BME280;68622;53.128;17.966;2023-09-19T11:07:15;100520.98;;;23.71;50.86
76137;BME280;68622;53.128;17.966;2023-09-19T11:09:52;100522.17;;;23.72;50.79
76137;BME280;68622;53.128;17.966;2023-09-19T11:26:45;100542.86;;;23.49;47.83
76137;BME280;68622;53.128;17.966;2023-09-19T11:31:51;100534.61;;;23.56;47.05
76137;BME280;68622;53.128;17.966;2023-09-19T11:34:38;100528.85;;;23.68;47.23
76137;BME280;68622;53.128;17.966;2023-09-19T11:40:06;100536.10;;;24.01;46.31
76137;BME280;68622;53.128;17.966;2023-09-19T11:42:48;100541.23;;;24.10;45.92
76137;BME280;68622;53.128;17.966;2023-09-19T11:48:07;100548.77;;;24.10;45.19
76137;BME280;68622;53.128;17.966;2023-09-19T11:50:35;100549.26;;;24.08;45.06
76137;BME280;68622;53.128;17.966;2023-09-19T11:53:05;100552.53;;;23.97;45.38
76137;BME280;68622;53.128;17.966;2023-09-19T11:55:32;100551.59;;;24.04;45.56
76137;BME280;68622;53.128;17.966;2023-09-19T11:58:01;100543.27;;;24.11;45.36
76137;BME280;68622;53.128;17.966;2023-09-19T12:00:27;100550.43;;;24.14;45.19
76137;BME280;68622;53.128;17.966;2023-09-19T12:02:55;100556.95;;;24.05;42.35
76137;BME280;68622;53.128;17.966;2023-09-19T12:05:30;100569.05;;;24.10;42.12
76137;BME280;68622;53.128;17.966;2023-09-19T12:08:00;100577.40;;;24.10;41.81
76137;BME280;68622;53.128;17.966;2023-09-19T12:10:27;100585.35;;;24.00;41.70
76137;BME280;68622;53.128;17.966;2023-09-19T12:12:54;100586.67;;;23.90;42.86
76137;BME280;68622;53.128;17.966;2023-09-19T12:15:23;100582.45;;;23.85;43.45
76137;BME280;68622;53.128;17.966;2023-09-19T12:17:55;100582.95;;;23.78;43.58
76137;BME280;68622;53.128;17.966;2023-09-19T12:20:21;100580.73;;;23.80;43.63
76137;BME280;68622;53.128;17.966;2023-09-19T12:22:48;100582.20;;;23.79;42.81
76137;BME280;68622;53.128;17.966;2023-09-19T12:25:16;100584.04;;;23.69;43.01
76137;BME280;68622;53.128;17.966;2023-09-19T12:27:46;100588.79;;;23.58;43.48
76137;BME280;68622;53.128;17.966;2023-09-19T12:30:14;100589.06;;;23.58;43.23
76137;BME280;68622;53.128;17.966;2023-09-19T12:32:45;100588.34;;;23.62;42.98
76137;BME280;68622;53.128;17.966;2023-09-19T12:35:27;100601.03;;;23.45;42.14
76137;BME280;68622;53.128;17.966;2023-09-19T12:37:55;100604.54;;;23.39;42.50
76137;BME280;68622;53.128;17.966;2023-09-19T12:40:22;100604.61;;;23.33;43.61
76137;BME280;68622;53.128;17.966;2023-09-19T12:42:54;100609.70;;;23.25;44.48
76137;BME280;68622;53.128;17.966;2023-09-19T12:45:31;100609.81;;;23.18;43.67
76137;BME280;68622;53.128;17.966;2023-09-19T12:48:21;100610.80;;;23.11;42.39
76137;BME280;68622;53.128;17.966;2023-09-19T12:53:38;100612.96;;;23.01;43.92
76137;BME280;68622;53.128;17.966;2023-09-19T12:56:17;100611.11;;;23.00;44.21
76137;BME280;68622;53.128;17.966;2023-09-19T13:01:16;100613.08;;;23.03;43.78
76137;BME280;68622;53.128;17.966;2023-09-19T13:03:43;100613.15;;;23.16;43.34
76137;BME280;68622;53.128;17.966;2023-09-19T13:06:09;100615.34;;;23.13;43.47
76137;BME280;68622;53.128;17.966;2023-09-19T13:08:38;100614.81;;;23.26;42.36
76137;BME280;68622;53.128;17.966;2023-09-19T13:11:12;100612.17;;;23.23;41.59
76137;BME280;68622;53.128;17.966;2023-09-19T13:13:44;100610.95;;;23.05;41.43
76137;BME280;68622;53.128;17.966;2023-09-19T13:16:12;100612.49;;;23.16;42.06
76137;BME280;68622;53.128;17.966;2023-09-19T13:18:52;100609.63;;;23.18;42.04
76137;BME280;68622;53.128;17.966;2023-09-19T13:21:33;100618.22;;;23.19;42.29
76137;BME280;68622;53.128;17.966;2023-09-19T13:24:37;100617.00;;;23.10;42.05
76137;BME280;68622;53.128;17.966;2023-09-19T13:27:08;100613.11;;;23.19;42.07
76137;BME280;68622;53.128;17.966;2023-09-19T13:29:34;100617.33;;;23.16;42.25
76137;BME280;68622;53.128;17.966;2023-09-19T13:32:01;100618.52;;;23.23;42.34
76137;BME280;68622;53.128;17.966;2023-09-19T13:34:28;100617.59;;;23.21;41.74
76137;BME280;68622;53.128;17.966;2023-09-19T13:36:55;100614.20;;;23.14;41.13
76137;BME280;68622;53.128;17.966;2023-09-19T13:39:22;100614.71;;;23.26;41.53
76137;BME280;68622;53.128;17.966;2023-09-19T13:41:51;100615.75;;;23.25;41.06
76137;BME280;68622;53.128;17.966;2023-09-19T13:44:17;100610.91;;;23.27;40.79
76137;BME280;68622;53.128;17.966;2023-09-19T13:46:44;100607.98;;;23.34;41.09